Time;durP1;ratioP1;P1;durP2;ratioP2;P2;SDS_P1;SDS_P2;PMS_P1;PMS_P2;Temp;Humidity;BMP_temperature;BMP_pressure;BME280_temperature;BME280_humidity;BME280_pressure;Samples;Min_cycle;Max_cycle;Signal;HPM_P1;HPM_P2
2021/10/16 00:01:42;;;;;;;;;10.00;10.00;;;;;15.35;62.04;101827.97;5017817;28;45489;-83
2021/10/16 00:04:08;;;;;;;;;10.50;9.50;;;;;15.33;62.00;101820.97;5019312;28;45526;-75
2021/10/16 00:06:33;;;;;;;;;11.50;8.75;;;;;15.13;62.18;101788.84;5019299;28;45593;-80
2021/10/16 00:08:59;;;;;;;;;8.75;8.75;;;;;15.31;61.99;101816.50;5018810;28;45541;-75
2021/10/16 00:11:25;;;;;;;;;10.75;10.75;;;;;15.23;62.01;101813.56;5018621;28;45354;-75
2021/10/16 00:13:51;;;;;;;;;10.00;9.25;;;;;15.24;62.01;101823.19;5019043;28;45478;-75
2021/10/16 00:16:16;;;;;;;;;9.00;9.00;;;;;15.16;62.01;101807.25;5018082;28;46151;-75
2021/10/16 00:18:42;;;;;;;;;9.75;9.00;;;;;15.24;62.12;101822.31;5018398;28;45429;-76
2021/10/16 00:21:07;;;;;;;;;12.50;11.25;;;;;15.22;62.23;101823.97;5017860;28;45323;-75
2021/10/16 00:23:33;;;;;;;;;12.75;11.75;;;;;15.17;62.33;101819.44;5018296;28;45318;-76
2021/10/16 00:25:59;;;;;;;;;12.00;10.25;;;;;15.13;62.36;101812.31;5016741;28;45458;-75
2021/10/16 00:28:24;;;;;;;;;10.50;10.00;;;;;15.17;62.29;101822.03;5015812;28;45666;-75
2021/10/16 00:30:50;;;;;;;;;11.50;10.25;;;;;15.15;62.56;101814.97;5015477;28;45437;-75
2021/10/16 00:33:16;;;;;;;;;10.75;9.75;;;;;15.12;62.30;101815.75;5015758;28;45552;-77
2021/10/16 00:35:42;;;;;;;;;10.50;10.25;;;;;15.11;62.05;101823.53;5017058;28;46031;-77
2021/10/16 00:38:08;;;;;;;;;11.50;11.50;;;;;15.05;62.75;101810.19;5017900;28;45704;-75
2021/10/16 00:40:34;;;;;;;;;12.00;12.00;;;;;15.02;62.11;101816.19;5018171;28;45440;-76
2021/10/16 00:43:00;;;;;;;;;12.25;10.25;;;;;15.05;62.11;101818.03;5018613;28;45355;-75
2021/10/16 00:45:26;;;;;;;;;12.00;10.50;;;;;15.04;62.37;101821.47;5017444;28;45870;-75
2021/10/16 00:47:52;;;;;;;;;15.00;12.75;;;;;15.01;62.45;101817.88;5018034;28;46029;-75
2021/10/16 00:50:21;;;;;;;;;15.75;14.25;;;;;14.97;62.07;101817.69;5017838;28;45430;-75
2021/10/16 00:52:48;;;;;;;;;10.50;10.50;;;;;14.91;62.25;101813.09;5018195;28;45266;-76
2021/10/16 00:55:16;;;;;;;;;10.25;9.50;;;;;14.90;62.40;101818.25;5017485;28;45374;-75
2021/10/16 00:57:51;;;;;;;;;12.75;11.00;;;;;14.78;62.47;101803.00;5017734;28;45452;-75
2021/10/16 01:00:17;;;;;;;;;13.25;10.75;;;;;14.79;62.37;101810.88;5017633;28;45423;-75
2021/10/16 01:02:42;;;;;;;;;13.25;10.50;;;;;14.79;62.41;101813.47;5018078;28;45268;-75
2021/10/16 01:05:09;;;;;;;;;12.25;9.75;;;;;14.76;62.58;101810.72;5017223;28;46119;-75
2021/10/16 01:07:40;;;;;;;;;12.00;10.50;;;;;14.74;62.14;101801.06;5017485;28;45830;-76
2021/10/16 01:10:08;;;;;;;;;11.50;10.50;;;;;14.75;62.95;101802.84;5017462;28;45406;-76
2021/10/16 01:12:34;;;;;;;;;13.00;10.50;;;;;14.77;62.59;101815.13;5018028;28;45236;-76
2021/10/16 01:15:02;;;;;;;;;12.75;11.00;;;;;14.78;62.33;101809.09;5017724;28;46145;-75
2021/10/16 01:17:32;;;;;;;;;13.75;13.00;;;;;14.78;62.66;101809.09;5017277;28;45725;-78
2021/10/16 01:20:10;;;;;;;;;14.75;11.00;;;;;14.79;62.24;101810.00;5017713;28;45361;-75
2021/10/16 01:22:40;;;;;;;;;11.25;11.00;;;;;14.72;62.21;101803.63;5017908;28;45339;-75
2021/10/16 01:25:10;;;;;;;;;12.00;10.50;;;;;14.71;62.50;101796.63;5017262;28;46209;-76
2021/10/16 01:27:38;;;;;;;;;14.00;12.25;;;;;14.66;62.81;101799.00;5017410;28;45422;-76
2021/10/16 01:30:09;;;;;;;;;12.00;10.50;;;;;14.63;62.55;101801.44;5017807;28;45437;-75
2021/10/16 01:32:36;;;;;;;;;14.75;12.25;;;;;14.60;62.78;101798.69;5017922;28;45466;-76
2021/10/16 01:35:04;;;;;;;;;12.75;9.75;;;;;14.55;62.95;101805.44;5017539;28;46101;-76
2021/10/16 01:37:29;;;;;;;;;12.00;12.00;;;;;14.53;62.96;101800.16;5017898;28;45926;-75
2021/10/16 01:39:55;;;;;;;;;13.50;12.50;;;;;14.55;62.88;101818.47;5015845;28;45292;-74
2021/10/16 01:42:20;;;;;;;;;12.50;12.50;;;;;14.46;63.00;101786.81;5016919;28;45598;-75
2021/10/16 01:44:46;;;;;;;;;12.25;12.25;;;;;14.52;62.64;101798.34;5017147;28;45402;-75
2021/10/16 01:47:12;;;;;;;;;13.50;12.00;;;;;14.51;62.79;101798.31;5016778;28;45382;-75
2021/10/16 01:49:37;;;;;;;;;11.50;10.25;;;;;14.47;63.17;101797.28;5017082;28;45387;-74
2021/10/16 01:52:05;;;;;;;;;15.00;12.00;;;;;14.43;63.15;101789.25;5017201;28;45602;-74
2021/10/16 01:54:31;;;;;;;;;10.75;10.75;;;;;14.45;63.20;101796.31;5017294;28;46121;-74
2021/10/16 01:56:57;;;;;;;;;14.25;14.00;;;;;14.42;62.74;101787.47;5016834;28;45756;-74
2021/10/16 01:59:25;;;;;;;;;14.25;14.25;;;;;14.26;62.97;101767.66;5015312;28;45285;-75
2021/10/16 02:01:52;;;;;;;;;12.00;10.75;;;;;14.39;62.76;101798.66;5017163;28;45268;-74
2021/10/16 02:04:18;;;;;;;;;15.50;12.00;;;;;14.38;63.33;101792.53;5016468;28;45338;-75
2021/10/16 02:06:44;;;;;;;;;14.00;11.00;;;;;14.39;63.26;101781.28;5016789;28;45402;-74
2021/10/16 02:09:11;;;;;;;;;12.25;11.00;;;;;14.39;62.96;101780.41;5016751;28;45249;-74
2021/10/16 02:11:36;;;;;;;;;12.00;10.75;;;;;14.33;62.80;101772.31;5016971;28;45541;-74
2021/10/16 02:14:03;;;;;;;;;13.00;11.75;;;;;14.35;62.88;101779.41;5016807;28;45321;-75
2021/10/16 02:16:29;;;;;;;;;12.50;9.50;;;;;14.32;63.36;101776.66;5016379;28;45880;-75
2021/10/16 02:18:57;;;;;;;;;13.00;13.00;;;;;14.31;62.87;101781.75;5016629;28;45383;-74
2021/10/16 02:21:23;;;;;;;;;15.75;14.25;;;;;14.29;63.17;101779.09;5016733;28;45451;-76
2021/10/16 02:23:48;;;;;;;;;14.25;11.75;;;;;14.26;63.05;101767.66;5017281;28;45275;-77
2021/10/16 02:26:14;;;;;;;;;16.00;14.00;;;;;14.29;63.28;101775.63;5016571;28;45266;-76
2021/10/16 02:28:40;;;;;;;;;14.00;11.00;;;;;14.29;62.90;101770.41;5016262;28;45301;-78
2021/10/16 02:31:05;;;;;;;;;13.00;12.25;;;;;14.34;63.20;101774.09;5016707;28;45336;-79
2021/10/16 02:33:31;;;;;;;;;13.00;13.00;;;;;14.31;63.01;101773.94;5016744;28;45764;-79
2021/10/16 02:35:57;;;;;;;;;11.75;10.25;;;;;14.22;63.11;101772.72;5016433;28;45292;-75
2021/10/16 02:38:22;;;;;;;;;11.00;11.00;;;;;14.19;63.06;101761.28;5016280;28;45318;-76
2021/10/16 02:40:48;;;;;;;;;14.75;13.00;;;;;14.27;63.06;101769.44;5016760;28;45431;-75
2021/10/16 02:43:14;;;;;;;;;14.25;11.75;;;;;14.27;63.09;101772.91;5014997;28;47525;-74
2021/10/16 02:45:39;;;;;;;;;10.75;10.50;;;;;14.26;62.98;101776.34;5016062;28;45479;-74
2021/10/16 02:48:05;;;;;;;;;14.00;11.50;;;;;14.25;63.01;101766.78;5016145;28;45388;-76
2021/10/16 02:50:31;;;;;;;;;15.75;12.25;;;;;14.22;62.84;101762.31;5016749;28;45339;-74
2021/10/16 02:52:56;;;;;;;;;10.00;10.00;;;;;14.05;62.82;101742.44;5015997;28;45993;-76
2021/10/16 02:55:22;;;;;;;;;9.25;8.50;;;;;14.08;62.59;101755.59;5016221;28;45338;-74
2021/10/16 02:57:47;;;;;;;;;11.25;9.00;;;;;14.13;62.59;101769.69;5016925;28;45375;-74
2021/10/16 03:00:13;;;;;;;;;14.75;11.50;;;;;13.99;62.93;101740.44;5016117;28;45554;-74
2021/10/16 03:02:39;;;;;;;;;16.25;13.00;;;;;14.08;62.54;101766.00;5016074;28;45608;-75
2021/10/16 03:05:05;;;;;;;;;11.50;10.75;;;;;13.99;62.77;101750.84;5015881;28;45423;-74
2021/10/16 03:07:31;;;;;;;;;9.25;9.00;;;;;14.01;63.18;101764.84;5016364;28;45319;-77
2021/10/16 03:09:57;;;;;;;;;14.50;12.50;;;;;13.89;63.28;101746.03;5016365;28;45260;-74
2021/10/16 03:12:23;;;;;;;;;11.25;9.75;;;;;13.98;62.92;101762.09;5015752;28;46232;-76
2021/10/16 03:14:49;;;;;;;;;13.00;10.50;;;;;13.97;63.01;101760.28;5016233;28;45250;-74
2021/10/16 03:17:15;;;;;;;;;12.25;10.50;;;;;14.01;62.66;101763.94;5015742;28;45402;-74
2021/10/16 03:19:41;;;;;;;;;14.75;12.50;;;;;13.96;62.92;101752.44;5014793;28;45338;-74
2021/10/16 03:22:08;;;;;;;;;12.50;12.00;;;;;13.94;62.90;101754.94;5015400;28;46245;-74
2021/10/16 03:24:35;;;;;;;;;13.00;13.00;;;;;13.90;62.87;101748.69;5016066;28;45770;-74
2021/10/16 03:27:01;;;;;;;;;11.25;10.25;;;;;13.91;63.00;101763.50;5016207;28;45376;-75
2021/10/16 03:29:27;;;;;;;;;14.75;12.75;;;;;13.91;63.18;101765.22;5015713;28;45576;-74
2021/10/16 03:31:52;;;;;;;;;9.75;9.50;;;;;13.91;63.03;101768.72;5015490;28;45319;-73
2021/10/16 03:34:18;;;;;;;;;14.75;11.75;;;;;13.88;62.98;101763.34;5015249;28;45421;-74
2021/10/16 03:36:43;;;;;;;;;14.50;12.00;;;;;13.88;63.10;101755.53;5015748;28;45375;-76
2021/10/16 03:39:09;;;;;;;;;11.00;10.00;;;;;13.88;63.11;101759.88;5015636;28;45556;-74
2021/10/16 03:41:35;;;;;;;;;11.00;9.75;;;;;13.87;63.16;101763.28;5014228;28;48013;-74
2021/10/16 03:44:00;;;;;;;;;16.25;11.50;;;;;13.86;63.21;101766.72;5015650;28;45391;-74
2021/10/16 03:46:26;;;;;;;;;13.50;12.50;;;;;13.77;63.47;101744.66;5015292;28;45317;-74
2021/10/16 03:48:52;;;;;;;;;12.25;10.50;;;;;13.82;63.44;101767.41;5015742;28;45583;-74
2021/10/16 03:51:17;;;;;;;;;9.50;9.00;;;;;13.75;63.58;101767.09;5014930;28;45316;-74
2021/10/16 03:53:43;;;;;;;;;12.75;11.75;;;;;13.72;63.84;101769.56;5015433;28;45340;-73
2021/10/16 03:56:08;;;;;;;;;11.75;10.75;;;;;13.70;63.69;101762.50;5015255;28;45339;-76
2021/10/16 03:58:34;;;;;;;;;13.50;12.50;;;;;13.69;63.91;101763.31;5016036;28;45319;-76
2021/10/16 04:01:02;;;;;;;;;10.75;9.00;;;;;13.73;63.45;101776.53;5015668;28;45272;-76
2021/10/16 04:03:29;;;;;;;;;12.50;12.00;;;;;13.74;63.71;101772.25;5015405;28;45342;-76
2021/10/16 04:05:56;;;;;;;;;15.25;14.75;;;;;13.66;63.80;101766.69;5018919;28;45403;-76
2021/10/16 04:08:22;;;;;;;;;12.00;12.00;;;;;13.71;63.43;101772.09;5018769;28;45527;-76
2021/10/16 04:10:48;;;;;;;;;12.00;12.00;;;;;13.73;63.79;101770.47;5018386;28;46158;-77
2021/10/16 04:13:14;;;;;;;;;11.50;11.50;;;;;13.75;63.68;101774.03;5018638;28;45405;-77
2021/10/16 04:15:39;;;;;;;;;12.00;11.00;;;;;13.73;63.60;101771.34;5019092;28;45370;-74
2021/10/16 04:18:05;;;;;;;;;15.00;13.75;;;;;13.66;63.44;101758.00;5018625;28;45322;-76
2021/10/16 04:20:31;;;;;;;;;12.75;12.25;;;;;13.63;63.43;101763.91;5018800;28;45380;-76
2021/10/16 04:22:57;;;;;;;;;13.50;11.25;;;;;13.65;63.64;101772.69;5018424;28;45712;-77
2021/10/16 04:25:23;;;;;;;;;12.00;11.00;;;;;13.68;63.77;101775.44;5018365;28;45486;-76
2021/10/16 04:27:49;;;;;;;;;10.50;10.00;;;;;13.60;63.61;101767.28;5018986;28;45372;-76
2021/10/16 04:30:15;;;;;;;;;10.25;9.75;;;;;13.69;63.70;101781.53;5017897;28;45882;-76
2021/10/16 04:32:41;;;;;;;;;10.00;9.00;;;;;13.70;63.63;101784.22;5033488;28;45354;-77
2021/10/16 04:35:08;;;;;;;;;13.75;11.25;;;;;13.64;63.19;101770.03;5018011;28;45289;-74
2021/10/16 04:37:34;;;;;;;;;11.00;9.25;;;;;13.69;63.45;101772.03;5018923;28;45447;-77
2021/10/16 04:40:08;;;;;;;;;12.50;11.00;;;;;13.58;63.26;101758.50;5018370;28;46058;-77
2021/10/16 04:42:34;;;;;;;;;11.25;11.25;;;;;13.71;63.09;101777.28;5017062;28;45804;-75
2021/10/16 04:45:00;;;;;;;;;11.75;9.75;;;;;13.55;62.89;101752.25;5018585;28;45419;-77
2021/10/16 04:47:26;;;;;;;;;15.25;12.75;;;;;13.71;62.95;101779.91;5018262;28;45612;-74
2021/10/16 04:49:51;;;;;;;;;14.50;14.00;;;;;13.63;62.82;101771.72;5018168;28;45376;-75
2021/10/16 04:52:17;;;;;;;;;11.25;11.00;;;;;13.68;62.78;101785.84;5032855;28;45379;-75
2021/10/16 04:54:43;;;;;;;;;14.75;14.50;;;;;13.58;63.21;101776.72;5016691;28;45370;-79
2021/10/16 04:57:08;;;;;;;;;16.25;14.75;;;;;13.60;63.01;101782.88;5018033;28;45224;-76
2021/10/16 04:59:34;;;;;;;;;12.25;10.25;;;;;13.65;63.14;101785.69;5018004;28;45515;-76
2021/10/16 05:02:00;;;;;;;;;11.25;10.00;;;;;13.67;62.95;101789.28;5018256;28;45490;-75
2021/10/16 05:04:25;;;;;;;;;14.00;12.50;;;;;13.62;63.06;101776.06;5018718;28;45284;-75
2021/10/16 05:06:51;;;;;;;;;14.00;12.00;;;;;13.59;62.69;101778.50;5018929;28;45380;-75
2021/10/16 05:09:17;;;;;;;;;13.75;13.75;;;;;13.66;62.72;101792.69;5018815;28;45890;-80
2021/10/16 05:11:42;;;;;;;;;15.00;11.25;;;;;13.67;62.94;101796.19;5023003;28;45417;-82
2021/10/16 05:14:09;;;;;;;;;12.50;11.00;;;;;13.68;63.10;101797.97;5016628;28;45443;-76
2021/10/16 05:16:34;;;;;;;;;11.50;10.50;;;;;13.70;63.00;101801.53;5000737;28;45826;-82
2021/10/16 05:19:00;;;;;;;;;11.25;11.00;;;;;13.60;63.06;101782.88;4998584;28;45411;-83
2021/10/16 05:21:25;;;;;;;;;14.50;13.75;;;;;13.68;62.53;101795.34;4997824;28;45359;-76
2021/10/16 05:23:51;;;;;;;;;13.25;13.25;;;;;13.67;63.07;101791.88;4997912;28;45254;-74
2021/10/16 05:26:16;;;;;;;;;13.00;12.00;;;;;13.62;62.83;101786.47;4997815;28;45489;-74
2021/10/16 05:28:42;;;;;;;;;13.25;13.00;;;;;13.64;62.59;101793.44;5002671;28;46439;-80
2021/10/16 05:31:07;;;;;;;;;16.75;14.50;;;;;13.59;63.03;101801.91;5022409;28;45307;-74
2021/10/16 05:33:33;;;;;;;;;18.75;14.25;;;;;13.58;63.05;101797.53;5016562;28;46791;-74
2021/10/16 05:35:59;;;;;;;;;20.25;14.50;;;;;13.42;62.75;101775.06;5015884;28;45718;-81
2021/10/16 05:38:26;;;;;;;;;16.25;14.00;;;;;13.43;63.13;101789.00;5014047;28;45523;-83
2021/10/16 05:40:52;;;;;;;;;21.75;16.00;;;;;13.38;63.33;101783.53;5018290;28;45445;-81
2021/10/16 05:43:17;;;;;;;;;17.50;16.25;;;;;13.46;63.04;101784.81;5018722;28;45266;-75
2021/10/16 05:45:43;;;;;;;;;15.25;14.50;;;;;13.41;62.90;101782.81;5020343;28;45459;-78
2021/10/16 05:48:09;;;;;;;;;12.25;11.75;;;;;13.46;62.97;101791.72;5019406;28;46136;-75
2021/10/16 05:50:38;;;;;;;;;15.75;15.25;;;;;13.46;63.23;101786.50;5020326;28;45342;-75
2021/10/16 05:53:07;;;;;;;;;15.75;13.25;;;;;13.35;63.22;101770.38;5014636;28;45392;-75
2021/10/16 05:55:37;;;;;;;;;13.50;11.00;;;;;13.39;63.18;101774.00;5000718;28;45513;-77
2021/10/16 05:58:03;;;;;;;;;12.50;12.25;;;;;13.45;62.91;101792.53;5010476;28;45523;-76
2021/10/16 06:00:31;;;;;;;;;13.50;13.00;;;;;13.36;63.52;101782.56;5019024;28;45256;-75
2021/10/16 06:03:01;;;;;;;;;14.50;12.75;;;;;13.43;63.33;101791.59;5022131;28;45245;-75
2021/10/16 06:05:29;;;;;;;;;12.00;12.00;;;;;13.47;63.09;101806.50;5018385;28;45188;-77
2021/10/16 06:07:55;;;;;;;;;16.00;12.00;;;;;13.45;63.32;101795.13;5017616;28;46034;-86
2021/10/16 06:10:20;;;;;;;;;15.50;14.00;;;;;13.48;63.23;101799.63;5015767;28;45426;-74
2021/10/16 06:12:46;;;;;;;;;16.00;13.50;;;;;13.55;63.46;101804.28;5016215;28;45331;-74
2021/10/16 06:15:11;;;;;;;;;14.75;13.75;;;;;13.52;62.97;101796.31;5017092;28;45410;-80
2021/10/16 06:17:39;;;;;;;;;15.75;15.75;;;;;13.57;62.63;101798.34;5012937;28;46658;-74
2021/10/16 06:20:05;;;;;;;;;25.75;14.25;;;;;13.64;63.22;101796.94;5014883;28;45448;-74
2021/10/16 06:22:31;;;;;;;;;13.00;13.00;;;;;13.66;62.63;101791.81;5018971;28;45419;-86
2021/10/16 06:24:57;;;;;;;;;16.25;15.25;;;;;13.77;62.64;101807.13;5017689;28;45290;-78
2021/10/16 06:27:23;;;;;;;;;18.00;15.75;;;;;13.70;62.40;101785.91;5013079;28;45839;-77
2021/10/16 06:29:50;;;;;;;;;17.75;16.25;;;;;13.80;62.57;101802.88;5016137;28;45820;-77
2021/10/16 06:32:15;;;;;;;;;23.50;18.50;;;;;13.80;62.86;101801.16;5015670;28;45315;-76
2021/10/16 06:34:41;;;;;;;;;15.50;14.00;;;;;13.81;62.60;101808.16;5014901;28;45518;-81
2021/10/16 06:37:06;;;;;;;;;18.00;15.00;;;;;13.76;62.74;101802.72;5016104;28;46418;-76
2021/10/16 06:39:32;;;;;;;;;21.75;15.00;;;;;13.83;62.89;101805.59;5017530;28;45474;-74
2021/10/16 06:41:58;;;;;;;;;16.75;16.75;;;;;13.84;62.90;101804.78;5019364;28;45258;-80
2021/10/16 06:44:23;;;;;;;;;19.00;17.50;;;;;13.81;63.08;101791.66;5016996;28;45580;-75
2021/10/16 06:46:49;;;;;;;;;18.50;16.75;;;;;13.82;62.77;101802.13;5016424;28;45618;-75
2021/10/16 06:49:15;;;;;;;;;17.50;15.75;;;;;13.82;62.77;101809.06;5014993;28;45810;-81
2021/10/16 06:51:42;;;;;;;;;16.00;15.75;;;;;13.76;62.48;101801.84;5014603;28;45398;-77
2021/10/16 06:54:09;;;;;;;;;16.00;14.00;;;;;13.71;62.72;101793.81;5016224;28;45576;-76
2021/10/16 06:56:35;;;;;;;;;21.25;17.75;;;;;13.79;62.87;101812.38;5003847;28;46241;-78
2021/10/16 06:59:01;;;;;;;;;17.50;15.75;;;;;13.81;62.72;101812.47;5020239;28;45395;-87
2021/10/16 07:01:27;;;;;;;;;16.00;15.00;;;;;13.81;62.63;101818.56;5015432;28;45315;-77
2021/10/16 07:03:52;;;;;;;;;19.25;15.50;;;;;13.79;63.00;101807.19;5015517;28;45456;-80
2021/10/16 07:06:18;;;;;;;;;19.75;17.50;;;;;13.77;62.75;101804.50;5014877;28;46240;-78
2021/10/16 07:08:44;;;;;;;;;31.75;24.50;;;;;13.86;63.15;101809.28;5015393;28;45532;-78
2021/10/16 07:11:09;;;;;;;;;21.75;18.50;;;;;13.92;62.70;101816.47;5004352;28;45489;-77
2021/10/16 07:13:35;;;;;;;;;18.50;17.75;;;;;13.92;62.59;101813.88;5013585;28;45526;-76
2021/10/16 07:16:00;;;;;;;;;20.75;16.00;;;;;13.99;63.00;101828.06;5014481;28;45341;-74
2021/10/16 07:18:26;;;;;;;;;19.25;17.50;;;;;14.02;62.70;101839.53;5014487;28;45434;-76
2021/10/16 07:20:52;;;;;;;;;20.75;17.00;;;;;14.00;62.13;101832.44;5014501;28;45616;-75
2021/10/16 07:23:24;;;;;;;;;14.00;12.50;;;;;14.07;62.41;101835.41;5018363;28;45367;-76
2021/10/16 07:25:50;;;;;;;;;24.75;22.00;;;;;14.07;62.21;101824.13;5015991;28;45304;-76
2021/10/16 07:28:15;;;;;;;;;22.00;17.25;;;;;14.14;61.80;101840.94;5015255;28;45388;-74
2021/10/16 07:30:41;;;;;;;;;17.00;17.00;;;;;14.18;62.08;101833.31;5013848;28;45435;-76
2021/10/16 07:33:07;;;;;;;;;21.50;16.75;;;;;14.21;61.82;101841.25;5014994;28;45398;-78
2021/10/16 07:35:33;;;;;;;;;20.25;19.00;;;;;14.21;61.80;101836.03;5016121;28;45440;-78
2021/10/16 07:37:59;;;;;;;;;19.75;18.75;;;;;14.19;61.60;101826.38;5030884;28;45452;-77
2021/10/16 07:40:24;;;;;;;;;21.50;20.75;;;;;14.27;61.48;101844.97;5018888;28;45271;-77
2021/10/16 07:42:50;;;;;;;;;18.50;15.50;;;;;14.23;61.46;101836.13;5020420;28;45529;-78
2021/10/16 07:45:17;;;;;;;;;14.25;13.75;;;;;14.18;61.35;101827.22;5018685;28;46421;-75
2021/10/16 07:47:43;;;;;;;;;20.00;18.75;;;;;14.17;61.08;101830.63;5018693;28;45286;-77
2021/10/16 07:50:08;;;;;;;;;17.50;16.25;;;;;14.03;61.25;101825.69;5018456;28;45297;-77
2021/10/16 07:52:34;;;;;;;;;17.00;15.25;;;;;14.03;61.28;101838.72;5019152;28;45413;-76
2021/10/16 07:55:00;;;;;;;;;16.25;15.00;;;;;14.00;61.34;101846.38;5017429;28;46558;-77
2021/10/16 07:57:26;;;;;;;;;20.75;18.00;;;;;14.00;61.43;101846.38;5018267;28;45334;-77
2021/10/16 07:59:51;;;;;;;;;21.25;18.25;;;;;13.95;61.51;101842.63;5018657;28;45438;-79
2021/10/16 08:02:17;;;;;;;;;19.50;17.50;;;;;13.99;61.76;101852.38;5018529;28;45286;-77
2021/10/16 08:04:42;;;;;;;;;17.00;15.75;;;;;13.98;61.77;101847.13;5021188;28;45423;-77
2021/10/16 08:07:08;;;;;;;;;17.75;17.00;;;;;14.00;61.26;101843.75;5022637;28;45351;-78
2021/10/16 08:09:33;;;;;;;;;21.25;20.75;;;;;13.96;61.24;101833.13;5019183;28;45380;-77
2021/10/16 08:11:59;;;;;;;;;15.25;13.75;;;;;14.04;61.37;101847.41;5018740;28;45224;-77
2021/10/16 08:14:25;;;;;;;;;19.50;18.50;;;;;14.03;61.42;101846.53;5017858;28;45269;-79
2021/10/16 08:16:50;;;;;;;;;15.50;15.25;;;;;14.05;61.10;101849.19;5018324;28;45391;-82
2021/10/16 08:19:16;;;;;;;;;19.25;17.25;;;;;14.08;61.62;101841.53;5018026;28;45428;-75
2021/10/16 08:21:42;;;;;;;;;19.00;18.00;;;;;14.07;61.42;101839.75;5018468;28;45378;-78
2021/10/16 08:24:08;;;;;;;;;22.25;18.50;;;;;14.00;61.52;101832.44;5017707;28;45568;-78
2021/10/16 08:26:33;;;;;;;;;19.50;16.25;;;;;14.06;61.10;101838.84;5017060;28;45456;-78
2021/10/16 08:28:59;;;;;;;;;20.25;18.50;;;;;14.11;60.89;101843.38;5018210;28;45346;-77
2021/10/16 08:31:25;;;;;;;;;16.50;15.25;;;;;13.99;61.34;101815.94;5018404;28;45315;-78
2021/10/16 08:33:50;;;;;;;;;21.50;17.50;;;;;14.11;61.16;101838.16;5018028;28;46533;-77
2021/10/16 08:36:16;;;;;;;;;16.50;14.25;;;;;14.04;61.12;101822.25;5018122;28;45317;-78
2021/10/16 08:38:43;;;;;;;;;19.00;17.50;;;;;14.10;60.99;101829.44;5018481;28;45225;-78
2021/10/16 08:41:12;;;;;;;;;18.25;16.25;;;;;14.23;61.36;101851.78;5018245;28;45489;-77
2021/10/16 08:43:40;;;;;;;;;17.75;16.50;;;;;14.27;60.91;101858.00;5017513;28;46016;-76
2021/10/16 08:46:06;;;;;;;;;16.00;15.00;;;;;14.26;60.63;101866.63;5016500;28;45282;-76
2021/10/16 08:48:32;;;;;;;;;17.00;16.00;;;;;14.30;60.30;101869.47;5022282;28;45315;-79
2021/10/16 08:51:02;;;;;;;;;17.00;16.75;;;;;14.32;60.41;101867.81;5023031;28;45539;-78
2021/10/16 08:53:28;;;;;;;;;18.25;15.75;;;;;14.23;60.55;101850.03;5000509;28;47546;-80
2021/10/16 08:55:54;;;;;;;;;17.25;16.50;;;;;14.32;59.95;101867.81;5015908;28;45598;-79
2021/10/16 08:58:21;;;;;;;;;21.50;17.50;;;;;14.35;60.08;101869.66;5016114;28;45281;-78
2021/10/16 09:00:51;;;;;;;;;20.25;19.00;;;;;14.33;59.98;101874.81;5017211;28;45533;-78
2021/10/16 09:03:21;;;;;;;;;20.50;18.50;;;;;14.16;59.77;101834.03;5016972;28;46222;-80
2021/10/16 09:06:05;;;;;;;;;19.50;18.00;;;;;14.33;60.02;101855.66;5017558;28;45328;-77
2021/10/16 09:08:44;;;;;;;;;16.00;16.00;;;;;14.43;59.30;101870.03;5017816;28;45414;-77
2021/10/16 09:11:29;;;;;;;;;16.25;15.00;;;;;14.45;59.44;101866.66;5016424;28;45484;-78
2021/10/16 09:14:09;;;;;;;;;18.75;17.00;;;;;14.39;59.16;101855.97;5017089;28;45409;-78
2021/10/16 09:16:54;;;;;;;;;17.25;14.00;;;;;14.39;59.30;101851.63;5015629;28;45952;-78
2021/10/16 09:19:25;;;;;;;;;16.75;15.25;;;;;14.49;58.36;101862.47;5032441;28;45833;-78
2021/10/16 09:21:56;;;;;;;;;15.75;14.00;;;;;14.52;58.78;101866.09;5017209;28;45429;-77
2021/10/16 09:24:31;;;;;;;;;18.75;16.00;;;;;14.53;58.36;101865.28;5017433;28;46104;-78
2021/10/16 09:27:00;;;;;;;;;15.00;14.00;;;;;14.55;57.94;101853.22;5017073;28;45473;-83
2021/10/16 09:29:28;;;;;;;;;17.25;16.00;;;;;14.62;57.74;101864.81;5019027;28;45518;-89
2021/10/16 09:32:00;;;;;;;;;18.00;17.25;;;;;14.67;57.60;101863.38;5020964;28;45244;-81
2021/10/16 09:34:31;;;;;;;;;17.00;16.75;;;;;14.71;58.03;101861.78;5017694;28;45268;-76
2021/10/16 09:37:21;;;;;;;;;15.00;15.00;;;;;14.75;57.97;101865.41;5016922;28;45213;-85
2021/10/16 09:39:49;;;;;;;;;21.50;17.00;;;;;14.79;58.08;101865.63;4994619;28;45312;-77
2021/10/16 09:42:36;;;;;;;;;18.00;16.00;;;;;14.82;57.83;101863.16;5004649;28;45561;-80
2021/10/16 09:45:10;;;;;;;;;16.25;16.25;;;;;14.79;57.99;101846.50;5016946;28;46230;-76
2021/10/16 09:47:36;;;;;;;;;19.00;17.75;;;;;14.90;57.49;101862.59;5014760;28;45353;-75
2021/10/16 09:50:06;;;;;;;;;17.00;14.50;;;;;14.94;57.82;101862.78;5017208;28;45295;-76
2021/10/16 09:52:38;;;;;;;;;15.75;13.00;;;;;15.00;57.47;101864.78;5020129;28;45311;-76
2021/10/16 09:55:06;;;;;;;;;20.25;18.75;;;;;15.01;56.83;101863.94;5019900;28;45460;-76
2021/10/16 09:57:32;;;;;;;;;21.25;19.50;;;;;15.04;56.54;101857.97;5016057;28;45799;-76
2021/10/16 10:00:03;;;;;;;;;18.75;17.50;;;;;15.05;56.38;101854.53;5016470;28;45827;-80
2021/10/16 10:02:31;;;;;;;;;19.00;16.00;;;;;15.01;57.01;101851.78;5016736;28;45636;-80
2021/10/16 10:04:57;;;;;;;;;22.25;19.25;;;;;15.11;57.06;101858.31;5016646;28;45352;-77
2021/10/16 10:07:24;;;;;;;;;19.00;18.00;;;;;15.08;57.05;101852.06;5017155;28;45567;-80
2021/10/16 10:09:50;;;;;;;;;18.00;18.00;;;;;15.14;56.58;101853.22;5017111;28;45557;-75
2021/10/16 10:12:16;;;;;;;;;24.00;19.50;;;;;15.21;56.56;101858.69;5013646;28;45485;-74
2021/10/16 10:14:44;;;;;;;;;18.00;17.75;;;;;15.20;56.85;101850.00;5012496;28;45518;-75
2021/10/16 10:17:12;;;;;;;;;19.75;17.75;;;;;15.23;56.45;101850.09;5013309;28;45474;-75
2021/10/16 10:19:47;;;;;;;;;16.75;15.50;;;;;15.31;56.37;101856.56;5016987;28;45392;-76
2021/10/16 10:22:19;;;;;;;;;16.00;14.75;;;;;15.35;56.31;101856.66;5016444;28;45394;-73
2021/10/16 10:24:48;;;;;;;;;16.00;13.75;;;;;15.37;56.10;101853.31;5018441;28;48081;-73
2021/10/16 10:27:16;;;;;;;;;18.50;17.75;;;;;15.38;56.62;101849.88;5015966;28;45518;-77
2021/10/16 10:29:45;;;;;;;;;20.00;18.00;;;;;15.40;56.80;101848.19;5016576;28;45340;-76
2021/10/16 10:32:27;;;;;;;;;17.00;14.25;;;;;15.44;56.12;101849.25;5014655;28;45585;-76
2021/10/16 10:34:58;;;;;;;;;17.50;15.25;;;;;15.46;55.83;101848.47;5015865;28;46104;-76
2021/10/16 10:37:36;;;;;;;;;17.00;14.75;;;;;15.53;55.66;101853.94;5014974;28;46077;-75
2021/10/16 10:40:16;;;;;;;;;17.00;15.50;;;;;15.58;54.70;101857.63;5013967;28;45473;-74
2021/10/16 10:42:43;;;;;;;;;18.00;16.50;;;;;15.61;54.78;101856.03;5002107;28;45465;-77
2021/10/16 10:45:25;;;;;;;;;14.50;13.00;;;;;15.62;54.75;101850.00;5014604;28;45492;-79
2021/10/16 10:48:11;;;;;;;;;19.00;14.00;;;;;15.69;54.92;101865.91;5014085;28;45461;-76
2021/10/16 10:50:42;;;;;;;;;15.75;11.75;;;;;15.72;53.90;101859.06;5017242;28;45272;-78
2021/10/16 10:53:10;;;;;;;;;13.50;11.25;;;;;15.73;54.08;101863.47;5017211;28;45382;-77
2021/10/16 10:55:51;;;;;;;;;13.00;13.00;;;;;15.76;53.92;101853.16;5019536;28;45524;-77
2021/10/16 10:58:18;;;;;;;;;14.25;12.50;;;;;15.80;53.42;101848.94;5016874;28;45911;-79
2021/10/16 11:00:44;;;;;;;;;17.25;13.50;;;;;15.84;52.99;101848.28;5015782;28;45393;-79
2021/10/16 11:03:28;;;;;;;;;13.50;12.00;;;;;15.90;52.88;101842.41;5017486;28;45422;-77
2021/10/16 11:06:20;;;;;;;;;14.50;12.75;;;;;15.93;52.99;101845.13;5014580;28;46435;-78
2021/10/16 11:08:49;;;;;;;;;9.50;9.50;;;;;15.86;52.22;101823.13;5014899;28;45870;-78
2021/10/16 11:11:15;;;;;;;;;10.75;10.50;;;;;16.00;52.46;101836.72;5014906;28;45406;-76